| time (UTC) | temp F | wind direction | speed knots | gust knots | rain 1hr in | rain 24hr in | rain mn in | humidity % | barometer mb |
| 20260906093150 | 61 | 0 | 0.0 | 0.0 | 0.00 | 0.20 | 0.01 | 95 | 1013.5 |
| 20260906090152 | 61 | 0 | 0.0 | 0.0 | 0.00 | 0.20 | 0.01 | 95 | 1013.2 |
| 20260906083150 | 61 | 0 | 0.0 | 0.0 | 0.00 | 0.20 | 0.01 | 95 | 1013.4 |
| 20260906080151 | 62 | 0 | 0.0 | 0.0 | 0.00 | 0.20 | 0.01 | 95 | 1013.2 |
| 20260906070151 | 64 | 23 | 0.0 | 1.7 | 0.00 | 0.20 | 0.01 | 95 | 1013.2 |
| 20260906060150 | 65 | 0 | 0.0 | 0.0 | 0.01 | 0.20 | 0.01 | 95 | 1013.3 |
| 20260906053150 | 65 | 0 | 0.0 | 0.0 | 0.01 | 0.20 | 0.01 | 95 | 1013.2 |
| 20260906050150 | 65 | 0 | 0.0 | 0.0 | 0.00 | 0.18 | 0.00 | 95 | 1013.3 |
| 20260906040150 | 66 | 0 | 0.0 | 0.0 | 0.00 | 0.18 | 0.00 | 94 | 1013.0 |
| 20260906033150 | 66 | 63 | 0.0 | 3.5 | 0.00 | 0.18 | 0.18 | 94 | 1012.9 |
| 20260906030150 | 67 | 0 | 0.0 | 0.0 | 0.00 | 0.18 | 0.18 | 94 | 1012.8 |
| 20260906020151 | 67 | 0 | 0.0 | 0.0 | 0.04 | 0.18 | 0.18 | 92 | 1012.6 |
| 20260906010151 | 69 | 0 | 0.0 | 0.0 | 0.12 | 0.12 | 0.12 | 86 | 1012.2 |
| 20260906000152 | 70 | 101 | 0.0 | 1.7 | 0.00 | 0.00 | 0.00 | 77 | 1011.4 |
| 20260905230151 | 73 | 0 | 0.0 | 0.0 | 0.00 | 0.00 | 0.00 | 70 | 1010.9 |
| 20260905220153 | 74 | 0 | 0.0 | 0.0 | 0.00 | 0.00 | 0.00 | 67 | 1010.7 |
| 20260905210151 | 74 | 0 | 0.0 | 0.0 | 0.00 | 0.00 | 0.00 | 64 | 1010.0 |
| 20260905200151 | 77 | 285 | 0.0 | 2.6 | 0.00 | 0.00 | 0.00 | 62 | 1009.7 |
| 20260905190151 | 77 | 290 | 1.7 | 4.3 | 0.00 | 0.00 | 0.00 | 61 | 1009.9 |
| 20260905180151 | 77 | 12 | 1.7 | 4.3 | 0.00 | 0.00 | 0.00 | 59 | 1010.2 |
| 20260905170151 | 78 | 8 | 0.9 | 4.3 | 0.00 | 0.00 | 0.00 | 56 | 1010.1 |
| 20260905160151 | 76 | 28 | 2.6 | 6.1 | 0.00 | 0.00 | 0.00 | 61 | 1010.1 |
| 20260905150151 | 76 | 28 | 1.7 | 5.2 | 0.00 | 0.00 | 0.00 | 61 | 1010.3 |
| 20260905130151 | 69 | 333 | 0.9 | 1.7 | 0.00 | 0.00 | 0.00 | 79 | 1010.7 |
| 20260905120151 | 66 | 0 | 0.0 | 0.0 | 0.00 | 0.00 | 0.00 | 85 | 1010.7 |
| 20260905110152 | 63 | 0 | 0.0 | 0.0 | 0.00 | 0.00 | 0.00 | 90 | 1010.2 |
| 20260905100151 | 63 | 0 | 0.0 | 0.0 | 0.00 | 0.00 | 0.00 | 88 | 1009.7 |